sensor_id;sensor_type;location;lat;lon;timestamp;P1;durP1;ratioP1;P2;durP2;ratioP2
41623;SDS011;27319;50.306;18.926;2023-02-24T00:03:29;29.60;;;16.83;;
41623;SDS011;27319;50.306;18.926;2023-02-24T00:07:30;33.42;;;16.70;;
41623;SDS011;27319;50.306;18.926;2023-02-24T00:10:31;31.40;;;16.42;;
41623;SDS011;27319;50.306;18.926;2023-02-24T00:14:35;36.00;;;17.65;;
41623;SDS011;27319;50.306;18.926;2023-02-24T00:18:35;35.00;;;17.58;;
41623;SDS011;27319;50.306;18.926;2023-02-24T00:21:36;31.52;;;17.67;;
41623;SDS011;27319;50.306;18.926;2023-02-24T00:24:37;40.03;;;20.25;;
41623;SDS011;27319;50.306;18.926;2023-02-24T00:27:38;36.70;;;16.75;;
41623;SDS011;27319;50.306;18.926;2023-02-24T00:31:39;31.95;;;16.63;;
41623;SDS011;27319;50.306;18.926;2023-02-24T00:35:39;28.58;;;17.25;;
41623;SDS011;27319;50.306;18.926;2023-02-24T00:39:43;31.40;;;16.45;;
41623;SDS011;27319;50.306;18.926;2023-02-24T00:43:45;28.75;;;16.63;;
41623;SDS011;27319;50.306;18.926;2023-02-24T00:46:48;31.75;;;17.38;;
41623;SDS011;27319;50.306;18.926;2023-02-24T00:49:52;32.83;;;17.98;;
41623;SDS011;27319;50.306;18.926;2023-02-24T00:52:52;34.30;;;18.02;;
41623;SDS011;27319;50.306;18.926;2023-02-24T00:56:02;32.25;;;17.63;;
41623;SDS011;27319;50.306;18.926;2023-02-24T00:59:06;27.77;;;17.45;;
41623;SDS011;27319;50.306;18.926;2023-02-24T01:02:07;30.05;;;17.67;;
41623;SDS011;27319;50.306;18.926;2023-02-24T01:05:08;29.60;;;16.55;;
41623;SDS011;27319;50.306;18.926;2023-02-24T01:08:09;27.92;;;16.85;;
41623;SDS011;27319;50.306;18.926;2023-02-24T01:11:10;30.77;;;14.80;;
41623;SDS011;27319;50.306;18.926;2023-02-24T01:14:31;31.13;;;15.70;;
41623;SDS011;27319;50.306;18.926;2023-02-24T01:17:34;28.38;;;15.75;;
41623;SDS011;27319;50.306;18.926;2023-02-24T01:20:53;27.08;;;14.02;;
41623;SDS011;27319;50.306;18.926;2023-02-24T01:24:54;27.15;;;15.98;;
41623;SDS011;27319;50.306;18.926;2023-02-24T01:28:55;27.33;;;14.18;;
41623;SDS011;27319;50.306;18.926;2023-02-24T01:32:56;24.25;;;12.95;;
41623;SDS011;27319;50.306;18.926;2023-02-24T01:36:56;29.67;;;14.90;;
41623;SDS011;27319;50.306;18.926;2023-02-24T01:40:57;26.13;;;15.07;;
41623;SDS011;27319;50.306;18.926;2023-02-24T01:47:09;27.02;;;14.05;;
41623;SDS011;27319;50.306;18.926;2023-02-24T01:50:11;25.67;;;13.82;;
41623;SDS011;27319;50.306;18.926;2023-02-24T01:54:12;27.95;;;13.93;;
41623;SDS011;27319;50.306;18.926;2023-02-24T01:57:16;26.75;;;15.20;;
41623;SDS011;27319;50.306;18.926;2023-02-24T02:01:16;29.75;;;15.60;;
41623;SDS011;27319;50.306;18.926;2023-02-24T02:05:17;28.48;;;16.50;;
41623;SDS011;27319;50.306;18.926;2023-02-24T02:09:18;24.83;;;14.77;;
41623;SDS011;27319;50.306;18.926;2023-02-24T02:12:40;32.03;;;15.35;;
41623;SDS011;27319;50.306;18.926;2023-02-24T02:15:50;25.90;;;16.02;;
41623;SDS011;27319;50.306;18.926;2023-02-24T02:27:09;157.93;;;74.53;;
41623;SDS011;27319;50.306;18.926;2023-02-24T02:38:22;30.55;;;16.67;;
41623;SDS011;27319;50.306;18.926;2023-02-24T02:42:26;27.95;;;18.42;;
41623;SDS011;27319;50.306;18.926;2023-02-24T02:48:48;40.13;;;29.30;;
41623;SDS011;27319;50.306;18.926;2023-02-24T02:52:57;33.15;;;22.77;;
41623;SDS011;27319;50.306;18.926;2023-02-24T02:57:13;35.17;;;21.73;;
41623;SDS011;27319;50.306;18.926;2023-02-24T03:01:10;38.05;;;23.00;;
41623;SDS011;27319;50.306;18.926;2023-02-24T03:05:11;36.22;;;25.17;;
41623;SDS011;27319;50.306;18.926;2023-02-24T03:08:38;32.97;;;20.33;;
41623;SDS011;27319;50.306;18.926;2023-02-24T03:11:44;45.78;;;31.95;;
41623;SDS011;27319;50.306;18.926;2023-02-24T03:14:50;34.55;;;22.40;;
41623;SDS011;27319;50.306;18.926;2023-02-24T03:18:51;30.95;;;19.85;;
41623;SDS011;27319;50.306;18.926;2023-02-24T03:23:03;47.45;;;31.33;;
41623;SDS011;27319;50.306;18.926;2023-02-24T03:27:07;40.33;;;25.73;;
41623;SDS011;27319;50.306;18.926;2023-02-24T03:31:07;34.10;;;19.95;;
41623;SDS011;27319;50.306;18.926;2023-02-24T03:34:57;36.38;;;21.50;;
41623;SDS011;27319;50.306;18.926;2023-02-24T03:38:57;37.22;;;24.13;;
41623;SDS011;27319;50.306;18.926;2023-02-24T03:42:11;33.28;;;19.55;;
41623;SDS011;27319;50.306;18.926;2023-02-24T03:45:17;31.98;;;20.85;;
41623;SDS011;27319;50.306;18.926;2023-02-24T03:48:21;37.50;;;25.00;;
41623;SDS011;27319;50.306;18.926;2023-02-24T03:51:24;37.10;;;23.17;;
41623;SDS011;27319;50.306;18.926;2023-02-24T04:02:49;34.58;;;20.95;;
41623;SDS011;27319;50.306;18.926;2023-02-24T04:09:17;31.92;;;18.80;;
41623;SDS011;27319;50.306;18.926;2023-02-24T04:13:21;48.72;;;34.53;;
41623;SDS011;27319;50.306;18.926;2023-02-24T04:17:07;38.55;;;24.80;;
41623;SDS011;27319;50.306;18.926;2023-02-24T04:21:03;41.42;;;25.52;;
41623;SDS011;27319;50.306;18.926;2023-02-24T04:25:04;45.72;;;29.52;;
41623;SDS011;27319;50.306;18.926;2023-02-24T04:29:05;50.30;;;28.33;;
41623;SDS011;27319;50.306;18.926;2023-02-24T04:33:06;40.70;;;25.35;;
41623;SDS011;27319;50.306;18.926;2023-02-24T04:37:12;38.28;;;23.38;;
41623;SDS011;27319;50.306;18.926;2023-02-24T04:41:13;39.10;;;20.63;;
41623;SDS011;27319;50.306;18.926;2023-02-24T04:44:20;35.47;;;22.08;;
41623;SDS011;27319;50.306;18.926;2023-02-24T04:48:20;43.47;;;27.75;;
41623;SDS011;27319;50.306;18.926;2023-02-24T04:52:21;34.55;;;21.20;;
41623;SDS011;27319;50.306;18.926;2023-02-24T04:56:22;47.08;;;27.33;;
41623;SDS011;27319;50.306;18.926;2023-02-24T05:00:25;50.03;;;28.38;;
41623;SDS011;27319;50.306;18.926;2023-02-24T05:04:27;51.08;;;25.67;;
41623;SDS011;27319;50.306;18.926;2023-02-24T05:08:27;56.63;;;33.03;;
41623;SDS011;27319;50.306;18.926;2023-02-24T05:12:31;46.63;;;26.58;;
41623;SDS011;27319;50.306;18.926;2023-02-24T05:16:31;41.45;;;22.77;;
41623;SDS011;27319;50.306;18.926;2023-02-24T05:19:32;44.90;;;25.45;;
41623;SDS011;27319;50.306;18.926;2023-02-24T05:22:51;66.20;;;40.00;;
41623;SDS011;27319;50.306;18.926;2023-02-24T05:26:52;38.80;;;22.15;;
41623;SDS011;27319;50.306;18.926;2023-02-24T05:30:53;43.65;;;25.45;;
41623;SDS011;27319;50.306;18.926;2023-02-24T05:34:54;36.50;;;21.85;;
41623;SDS011;27319;50.306;18.926;2023-02-24T05:38:55;42.38;;;21.15;;
41623;SDS011;27319;50.306;18.926;2023-02-24T05:42:55;42.67;;;23.00;;
41623;SDS011;27319;50.306;18.926;2023-02-24T05:46:03;37.33;;;21.17;;
41623;SDS011;27319;50.306;18.926;2023-02-24T05:49:09;42.10;;;25.35;;
41623;SDS011;27319;50.306;18.926;2023-02-24T05:52:13;38.92;;;22.67;;
41623;SDS011;27319;50.306;18.926;2023-02-24T05:55:14;45.97;;;25.13;;
41623;SDS011;27319;50.306;18.926;2023-02-24T05:58:15;48.13;;;28.88;;
41623;SDS011;27319;50.306;18.926;2023-02-24T06:01:16;44.83;;;26.52;;
41623;SDS011;27319;50.306;18.926;2023-02-24T06:04:18;42.08;;;25.15;;
41623;SDS011;27319;50.306;18.926;2023-02-24T06:08:19;49.55;;;30.55;;
41623;SDS011;27319;50.306;18.926;2023-02-24T06:12:20;47.03;;;24.50;;
41623;SDS011;27319;50.306;18.926;2023-02-24T06:16:20;48.38;;;26.98;;
41623;SDS011;27319;50.306;18.926;2023-02-24T06:19:21;49.55;;;28.27;;
41623;SDS011;27319;50.306;18.926;2023-02-24T06:22:23;50.60;;;28.80;;
41623;SDS011;27319;50.306;18.926;2023-02-24T06:25:25;37.17;;;23.35;;
41623;SDS011;27319;50.306;18.926;2023-02-24T06:28:29;50.85;;;29.40;;
41623;SDS011;27319;50.306;18.926;2023-02-24T06:31:30;38.78;;;22.20;;
41623;SDS011;27319;50.306;18.926;2023-02-24T06:34:31;47.58;;;29.17;;
41623;SDS011;27319;50.306;18.926;2023-02-24T06:38:07;39.45;;;23.92;;
41623;SDS011;27319;50.306;18.926;2023-02-24T06:42:11;53.42;;;32.92;;
41623;SDS011;27319;50.306;18.926;2023-02-24T06:45:13;53.25;;;34.72;;
41623;SDS011;27319;50.306;18.926;2023-02-24T06:49:13;54.70;;;30.08;;
41623;SDS011;27319;50.306;18.926;2023-02-24T06:53:14;43.45;;;26.75;;
41623;SDS011;27319;50.306;18.926;2023-02-24T06:57:15;45.30;;;25.00;;
41623;SDS011;27319;50.306;18.926;2023-02-24T07:01:17;52.63;;;28.65;;
41623;SDS011;27319;50.306;18.926;2023-02-24T07:05:16;42.58;;;26.77;;
41623;SDS011;27319;50.306;18.926;2023-02-24T07:09:21;55.45;;;32.08;;
41623;SDS011;27319;50.306;18.926;2023-02-24T07:13:21;52.15;;;31.67;;
41623;SDS011;27319;50.306;18.926;2023-02-24T07:16:24;48.95;;;29.33;;
41623;SDS011;27319;50.306;18.926;2023-02-24T07:20:24;54.67;;;31.30;;
41623;SDS011;27319;50.306;18.926;2023-02-24T07:23:27;56.85;;;31.92;;
41623;SDS011;27319;50.306;18.926;2023-02-24T07:27:28;62.63;;;33.33;;
41623;SDS011;27319;50.306;18.926;2023-02-24T07:31:29;54.72;;;30.13;;
41623;SDS011;27319;50.306;18.926;2023-02-24T07:35:30;51.55;;;32.08;;
41623;SDS011;27319;50.306;18.926;2023-02-24T07:39:31;60.30;;;36.38;;
41623;SDS011;27319;50.306;18.926;2023-02-24T07:43:32;58.78;;;34.97;;
41623;SDS011;27319;50.306;18.926;2023-02-24T07:46:33;59.78;;;33.55;;
41623;SDS011;27319;50.306;18.926;2023-02-24T07:49:34;59.53;;;35.33;;
41623;SDS011;27319;50.306;18.926;2023-02-24T07:53:35;60.15;;;34.80;;
41623;SDS011;27319;50.306;18.926;2023-02-24T07:57:36;62.92;;;38.88;;
41623;SDS011;27319;50.306;18.926;2023-02-24T08:01:37;62.55;;;36.42;;
41623;SDS011;27319;50.306;18.926;2023-02-24T08:05:38;63.13;;;37.03;;
41623;SDS011;27319;50.306;18.926;2023-02-24T08:09:39;65.25;;;34.63;;
41623;SDS011;27319;50.306;18.926;2023-02-24T08:13:45;62.45;;;34.17;;
41623;SDS011;27319;50.306;18.926;2023-02-24T08:17:47;66.45;;;38.33;;
41623;SDS011;27319;50.306;18.926;2023-02-24T08:21:49;73.55;;;42.78;;
41623;SDS011;27319;50.306;18.926;2023-02-24T08:24:52;78.00;;;45.05;;
41623;SDS011;27319;50.306;18.926;2023-02-24T08:28:56;82.95;;;53.35;;
41623;SDS011;27319;50.306;18.926;2023-02-24T08:32:12;123.55;;;88.68;;
41623;SDS011;27319;50.306;18.926;2023-02-24T08:35:15;105.30;;;69.03;;
41623;SDS011;27319;50.306;18.926;2023-02-24T08:38:32;84.78;;;57.75;;
41623;SDS011;27319;50.306;18.926;2023-02-24T08:42:32;97.85;;;59.45;;
41623;SDS011;27319;50.306;18.926;2023-02-24T08:45:34;93.90;;;57.92;;
41623;SDS011;27319;50.306;18.926;2023-02-24T08:49:38;75.90;;;46.67;;
41623;SDS011;27319;50.306;18.926;2023-02-24T08:53:38;72.28;;;43.10;;
41623;SDS011;27319;50.306;18.926;2023-02-24T08:57:42;70.72;;;47.28;;
41623;SDS011;27319;50.306;18.926;2023-02-24T09:01:42;67.22;;;37.72;;
41623;SDS011;27319;50.306;18.926;2023-02-24T09:05:32;86.13;;;50.25;;
41623;SDS011;27319;50.306;18.926;2023-02-24T09:09:35;77.38;;;45.08;;
41623;SDS011;27319;50.306;18.926;2023-02-24T09:13:43;100.22;;;60.20;;
41623;SDS011;27319;50.306;18.926;2023-02-24T09:17:41;79.00;;;45.40;;
41623;SDS011;27319;50.306;18.926;2023-02-24T09:21:41;86.00;;;47.38;;
41623;SDS011;27319;50.306;18.926;2023-02-24T09:25:39;75.70;;;42.30;;
41623;SDS011;27319;50.306;18.926;2023-02-24T09:28:41;70.30;;;39.38;;
41623;SDS011;27319;50.306;18.926;2023-02-24T09:32:10;92.13;;;58.08;;
41623;SDS011;27319;50.306;18.926;2023-02-24T09:35:14;128.10;;;89.75;;
41623;SDS011;27319;50.306;18.926;2023-02-24T09:38:25;90.63;;;56.15;;
41623;SDS011;27319;50.306;18.926;2023-02-24T09:42:09;75.15;;;47.20;;
41623;SDS011;27319;50.306;18.926;2023-02-24T09:46:07;109.90;;;73.28;;
41623;SDS011;27319;50.306;18.926;2023-02-24T09:53:29;74.18;;;42.25;;
41623;SDS011;27319;50.306;18.926;2023-02-24T09:57:29;67.82;;;38.78;;
41623;SDS011;27319;50.306;18.926;2023-02-24T10:05:02;89.28;;;57.58;;
41623;SDS011;27319;50.306;18.926;2023-02-24T10:09:08;78.70;;;45.25;;
41623;SDS011;27319;50.306;18.926;2023-02-24T10:13:20;83.85;;;46.13;;
41623;SDS011;27319;50.306;18.926;2023-02-24T10:17:23;100.45;;;69.80;;
41623;SDS011;27319;50.306;18.926;2023-02-24T10:21:26;94.93;;;66.40;;
41623;SDS011;27319;50.306;18.926;2023-02-24T10:24:48;78.30;;;47.65;;
41623;SDS011;27319;50.306;18.926;2023-02-24T10:31:12;73.90;;;43.58;;
41623;SDS011;27319;50.306;18.926;2023-02-24T10:34:26;68.25;;;39.03;;
41623;SDS011;27319;50.306;18.926;2023-02-24T10:38:27;70.90;;;40.97;;
41623;SDS011;27319;50.306;18.926;2023-02-24T10:42:29;85.32;;;48.00;;
41623;SDS011;27319;50.306;18.926;2023-02-24T10:45:36;68.28;;;38.33;;
41623;SDS011;27319;50.306;18.926;2023-02-24T10:49:38;71.90;;;44.85;;
41623;SDS011;27319;50.306;18.926;2023-02-24T10:53:33;62.13;;;37.60;;
41623;SDS011;27319;50.306;18.926;2023-02-24T10:57:32;68.93;;;44.72;;
41623;SDS011;27319;50.306;18.926;2023-02-24T11:01:36;72.30;;;43.58;;
41623;SDS011;27319;50.306;18.926;2023-02-24T11:05:54;58.93;;;36.27;;
41623;SDS011;27319;50.306;18.926;2023-02-24T11:09:41;57.40;;;36.40;;
41623;SDS011;27319;50.306;18.926;2023-02-24T11:13:51;51.80;;;31.35;;
41623;SDS011;27319;50.306;18.926;2023-02-24T11:17:17;47.35;;;28.77;;
41623;SDS011;27319;50.306;18.926;2023-02-24T11:20:23;56.47;;;35.67;;
41623;SDS011;27319;50.306;18.926;2023-02-24T11:23:48;53.28;;;33.38;;
41623;SDS011;27319;50.306;18.926;2023-02-24T11:26:52;54.47;;;31.52;;
41623;SDS011;27319;50.306;18.926;2023-02-24T11:34:54;58.50;;;37.15;;
41623;SDS011;27319;50.306;18.926;2023-02-24T11:38:47;51.80;;;30.65;;
41623;SDS011;27319;50.306;18.926;2023-02-24T11:42:52;67.70;;;38.58;;
41623;SDS011;27319;50.306;18.926;2023-02-24T11:45:57;51.72;;;32.33;;
41623;SDS011;27319;50.306;18.926;2023-02-24T11:49:04;56.60;;;33.17;;
41623;SDS011;27319;50.306;18.926;2023-02-24T11:52:26;54.33;;;31.23;;
41623;SDS011;27319;50.306;18.926;2023-02-24T11:55:40;54.10;;;32.47;;
41623;SDS011;27319;50.306;18.926;2023-02-24T11:58:45;51.08;;;31.08;;
41623;SDS011;27319;50.306;18.926;2023-02-24T12:02:14;57.25;;;34.38;;
41623;SDS011;27319;50.306;18.926;2023-02-24T12:05:23;81.03;;;43.83;;
41623;SDS011;27319;50.306;18.926;2023-02-24T12:09:24;49.85;;;30.52;;
41623;SDS011;27319;50.306;18.926;2023-02-24T12:12:31;61.13;;;34.10;;
41623;SDS011;27319;50.306;18.926;2023-02-24T12:15:49;48.10;;;27.67;;
41623;SDS011;27319;50.306;18.926;2023-02-24T12:20:01;58.33;;;30.80;;
41623;SDS011;27319;50.306;18.926;2023-02-24T12:23:59;61.28;;;35.58;;
41623;SDS011;27319;50.306;18.926;2023-02-24T12:39:33;72.07;;;37.78;;
41623;SDS011;27319;50.306;18.926;2023-02-24T12:43:37;57.25;;;33.33;;
41623;SDS011;27319;50.306;18.926;2023-02-24T12:51:27;50.72;;;28.83;;
41623;SDS011;27319;50.306;18.926;2023-02-24T12:55:46;70.63;;;40.67;;
41623;SDS011;27319;50.306;18.926;2023-02-24T12:59:39;53.33;;;31.10;;
41623;SDS011;27319;50.306;18.926;2023-02-24T13:10:21;52.58;;;31.27;;
41623;SDS011;27319;50.306;18.926;2023-02-24T13:17:51;64.43;;;40.33;;
41623;SDS011;27319;50.306;18.926;2023-02-24T13:21:55;92.53;;;52.13;;
41623;SDS011;27319;50.306;18.926;2023-02-24T13:25:35;58.95;;;37.13;;
41623;SDS011;27319;50.306;18.926;2023-02-24T13:29:58;65.40;;;39.20;;
41623;SDS011;27319;50.306;18.926;2023-02-24T13:33:38;56.30;;;34.15;;
41623;SDS011;27319;50.306;18.926;2023-02-24T13:37:39;53.33;;;35.15;;
41623;SDS011;27319;50.306;18.926;2023-02-24T13:44:28;52.53;;;32.28;;
41623;SDS011;27319;50.306;18.926;2023-02-24T13:51:59;50.13;;;31.48;;
41623;SDS011;27319;50.306;18.926;2023-02-24T13:56:09;53.58;;;31.08;;
41623;SDS011;27319;50.306;18.926;2023-02-24T14:00:02;64.53;;;37.20;;
41623;SDS011;27319;50.306;18.926;2023-02-24T14:03:36;68.00;;;38.88;;
41623;SDS011;27319;50.306;18.926;2023-02-24T14:07:42;64.95;;;37.03;;
41623;SDS011;27319;50.306;18.926;2023-02-24T14:11:42;59.83;;;35.58;;
41623;SDS011;27319;50.306;18.926;2023-02-24T14:15:46;69.32;;;39.10;;
41623;SDS011;27319;50.306;18.926;2023-02-24T14:19:47;54.00;;;32.95;;
41623;SDS011;27319;50.306;18.926;2023-02-24T14:22:49;53.60;;;30.70;;
41623;SDS011;27319;50.306;18.926;2023-02-24T14:27:00;41.50;;;25.00;;
41623;SDS011;27319;50.306;18.926;2023-02-24T14:31:07;33.78;;;22.50;;
41623;SDS011;27319;50.306;18.926;2023-02-24T14:35:05;41.33;;;24.35;;
41623;SDS011;27319;50.306;18.926;2023-02-24T14:38:35;48.60;;;27.80;;
41623;SDS011;27319;50.306;18.926;2023-02-24T14:42:47;67.30;;;39.17;;
41623;SDS011;27319;50.306;18.926;2023-02-24T14:45:49;67.32;;;40.67;;
41623;SDS011;27319;50.306;18.926;2023-02-24T14:48:52;61.10;;;38.08;;
41623;SDS011;27319;50.306;18.926;2023-02-24T14:52:15;55.90;;;36.22;;
41623;SDS011;27319;50.306;18.926;2023-02-24T14:55:53;61.93;;;34.97;;
41623;SDS011;27319;50.306;18.926;2023-02-24T14:59:58;69.18;;;41.50;;
41623;SDS011;27319;50.306;18.926;2023-02-24T15:03:55;66.82;;;41.50;;
41623;SDS011;27319;50.306;18.926;2023-02-24T15:07:56;75.78;;;43.67;;
41623;SDS011;27319;50.306;18.926;2023-02-24T15:11:42;74.65;;;42.65;;
41623;SDS011;27319;50.306;18.926;2023-02-24T15:15:48;66.20;;;39.97;;
41623;SDS011;27319;50.306;18.926;2023-02-24T15:18:53;70.88;;;41.80;;
41623;SDS011;27319;50.306;18.926;2023-02-24T15:21:56;77.80;;;44.15;;
41623;SDS011;27319;50.306;18.926;2023-02-24T15:25:57;72.43;;;44.47;;
41623;SDS011;27319;50.306;18.926;2023-02-24T15:30:05;63.03;;;38.50;;
41623;SDS011;27319;50.306;18.926;2023-02-24T15:33:51;69.78;;;41.38;;
41623;SDS011;27319;50.306;18.926;2023-02-24T15:37:45;61.58;;;37.08;;
41623;SDS011;27319;50.306;18.926;2023-02-24T15:41:46;73.68;;;38.67;;
41623;SDS011;27319;50.306;18.926;2023-02-24T15:44:55;62.17;;;35.88;;
41623;SDS011;27319;50.306;18.926;2023-02-24T15:49:07;68.93;;;38.88;;
41623;SDS011;27319;50.306;18.926;2023-02-24T15:53:09;109.18;;;57.00;;
41623;SDS011;27319;50.306;18.926;2023-02-24T15:57:08;110.55;;;57.63;;
41623;SDS011;27319;50.306;18.926;2023-02-24T16:01:12;58.10;;;36.45;;
41623;SDS011;27319;50.306;18.926;2023-02-24T16:05:13;53.38;;;30.75;;
41623;SDS011;27319;50.306;18.926;2023-02-24T16:09:14;49.05;;;30.45;;
41623;SDS011;27319;50.306;18.926;2023-02-24T16:13:18;51.03;;;29.88;;
41623;SDS011;27319;50.306;18.926;2023-02-24T16:17:31;33.30;;;18.95;;
41623;SDS011;27319;50.306;18.926;2023-02-24T16:21:30;45.45;;;25.80;;
41623;SDS011;27319;50.306;18.926;2023-02-24T16:24:31;41.03;;;25.33;;
41623;SDS011;27319;50.306;18.926;2023-02-24T16:27:32;72.70;;;38.42;;
41623;SDS011;27319;50.306;18.926;2023-02-24T16:31:33;53.92;;;31.08;;
41623;SDS011;27319;50.306;18.926;2023-02-24T16:35:34;45.38;;;28.52;;
41623;SDS011;27319;50.306;18.926;2023-02-24T16:38:52;53.70;;;35.33;;
41623;SDS011;27319;50.306;18.926;2023-02-24T16:41:53;54.92;;;34.70;;
41623;SDS011;27319;50.306;18.926;2023-02-24T16:45:54;56.65;;;36.33;;
41623;SDS011;27319;50.306;18.926;2023-02-24T16:49:55;68.45;;;41.67;;
41623;SDS011;27319;50.306;18.926;2023-02-24T16:53:59;70.30;;;41.78;;
41623;SDS011;27319;50.306;18.926;2023-02-24T16:57:59;87.70;;;50.75;;
41623;SDS011;27319;50.306;18.926;2023-02-24T17:01:00;98.63;;;57.47;;
41623;SDS011;27319;50.306;18.926;2023-02-24T17:05:01;61.38;;;37.75;;
41623;SDS011;27319;50.306;18.926;2023-02-24T17:09:04;45.90;;;29.05;;
41623;SDS011;27319;50.306;18.926;2023-02-24T17:12:40;72.20;;;43.78;;
41623;SDS011;27319;50.306;18.926;2023-02-24T17:16:41;48.75;;;31.13;;
41623;SDS011;27319;50.306;18.926;2023-02-24T17:20:42;41.67;;;26.85;;
41623;SDS011;27319;50.306;18.926;2023-02-24T17:24:43;48.05;;;24.50;;
41623;SDS011;27319;50.306;18.926;2023-02-24T17:28:43;50.08;;;26.48;;
41623;SDS011;27319;50.306;18.926;2023-02-24T17:32:44;55.40;;;29.98;;
41623;SDS011;27319;50.306;18.926;2023-02-24T17:36:45;57.33;;;34.00;;
41623;SDS011;27319;50.306;18.926;2023-02-24T17:40:46;54.50;;;32.92;;
41623;SDS011;27319;50.306;18.926;2023-02-24T17:43:56;58.42;;;34.67;;
41623;SDS011;27319;50.306;18.926;2023-02-24T17:47:52;62.65;;;37.15;;
41623;SDS011;27319;50.306;18.926;2023-02-24T17:51:53;43.92;;;27.77;;
41623;SDS011;27319;50.306;18.926;2023-02-24T17:54:54;45.03;;;28.30;;
41623;SDS011;27319;50.306;18.926;2023-02-24T17:58:55;37.47;;;24.50;;
41623;SDS011;27319;50.306;18.926;2023-02-24T18:02:55;39.50;;;23.40;;
41623;SDS011;27319;50.306;18.926;2023-02-24T18:06:56;36.75;;;21.83;;
41623;SDS011;27319;50.306;18.926;2023-02-24T18:10:57;34.22;;;18.48;;
41623;SDS011;27319;50.306;18.926;2023-02-24T18:14:58;30.98;;;17.63;;
41623;SDS011;27319;50.306;18.926;2023-02-24T18:18:59;36.97;;;21.40;;
41623;SDS011;27319;50.306;18.926;2023-02-24T18:22:47;46.95;;;26.98;;
41623;SDS011;27319;50.306;18.926;2023-02-24T18:26:48;47.40;;;29.40;;
41623;SDS011;27319;50.306;18.926;2023-02-24T18:30:49;36.55;;;23.63;;
41623;SDS011;27319;50.306;18.926;2023-02-24T18:34:52;38.17;;;23.58;;
41623;SDS011;27319;50.306;18.926;2023-02-24T18:37:53;47.08;;;26.25;;
41623;SDS011;27319;50.306;18.926;2023-02-24T18:40:58;46.35;;;28.23;;
41623;SDS011;27319;50.306;18.926;2023-02-24T18:44:00;47.78;;;27.77;;
41623;SDS011;27319;50.306;18.926;2023-02-24T18:47:01;43.47;;;26.67;;
41623;SDS011;27319;50.306;18.926;2023-02-24T18:50:08;43.00;;;27.70;;
41623;SDS011;27319;50.306;18.926;2023-02-24T18:54:09;43.45;;;27.55;;
41623;SDS011;27319;50.306;18.926;2023-02-24T18:58:10;51.35;;;30.10;;
41623;SDS011;27319;50.306;18.926;2023-02-24T19:04:58;45.97;;;31.35;;
41623;SDS011;27319;50.306;18.926;2023-02-24T19:09:05;47.58;;;31.17;;
41623;SDS011;27319;50.306;18.926;2023-02-24T19:13:02;49.13;;;30.60;;
41623;SDS011;27319;50.306;18.926;2023-02-24T19:17:03;54.78;;;33.00;;
41623;SDS011;27319;50.306;18.926;2023-02-24T19:21:04;66.47;;;38.20;;
41623;SDS011;27319;50.306;18.926;2023-02-24T19:25:05;78.82;;;48.63;;
41623;SDS011;27319;50.306;18.926;2023-02-24T19:29:05;86.72;;;52.65;;
41623;SDS011;27319;50.306;18.926;2023-02-24T19:33:06;68.82;;;46.13;;
41623;SDS011;27319;50.306;18.926;2023-02-24T19:37:07;58.25;;;38.20;;
41623;SDS011;27319;50.306;18.926;2023-02-24T19:40:08;56.22;;;34.83;;
41623;SDS011;27319;50.306;18.926;2023-02-24T19:43:10;56.10;;;35.30;;
41623;SDS011;27319;50.306;18.926;2023-02-24T19:46:11;54.25;;;34.03;;
41623;SDS011;27319;50.306;18.926;2023-02-24T19:49:14;48.65;;;32.30;;
41623;SDS011;27319;50.306;18.926;2023-02-24T19:53:14;51.92;;;33.25;;
41623;SDS011;27319;50.306;18.926;2023-02-24T19:57:15;57.72;;;34.58;;
41623;SDS011;27319;50.306;18.926;2023-02-24T20:01:16;54.85;;;34.15;;
41623;SDS011;27319;50.306;18.926;2023-02-24T20:05:17;56.13;;;35.60;;
41623;SDS011;27319;50.306;18.926;2023-02-24T20:08:53;57.45;;;35.67;;
41623;SDS011;27319;50.306;18.926;2023-02-24T20:12:54;60.70;;;37.40;;
41623;SDS011;27319;50.306;18.926;2023-02-24T20:16:54;57.55;;;36.22;;
41623;SDS011;27319;50.306;18.926;2023-02-24T20:20:56;63.33;;;38.55;;
41623;SDS011;27319;50.306;18.926;2023-02-24T20:24:37;65.22;;;40.17;;
41623;SDS011;27319;50.306;18.926;2023-02-24T20:27:54;60.95;;;38.47;;
41623;SDS011;27319;50.306;18.926;2023-02-24T20:30:55;63.60;;;40.13;;
41623;SDS011;27319;50.306;18.926;2023-02-24T20:33:58;66.57;;;40.13;;
41623;SDS011;27319;50.306;18.926;2023-02-24T20:37:59;69.60;;;43.92;;
41623;SDS011;27319;50.306;18.926;2023-02-24T20:41:00;76.35;;;45.08;;
41623;SDS011;27319;50.306;18.926;2023-02-24T20:44:00;75.55;;;45.30;;
41623;SDS011;27319;50.306;18.926;2023-02-24T20:47:01;74.03;;;45.50;;
41623;SDS011;27319;50.306;18.926;2023-02-24T20:51:03;72.00;;;43.58;;
41623;SDS011;27319;50.306;18.926;2023-02-24T20:55:06;75.35;;;45.42;;
41623;SDS011;27319;50.306;18.926;2023-02-24T20:59:08;79.93;;;41.53;;
41623;SDS011;27319;50.306;18.926;2023-02-24T21:03:08;93.18;;;49.58;;
41623;SDS011;27319;50.306;18.926;2023-02-24T21:07:10;70.53;;;39.58;;
41623;SDS011;27319;50.306;18.926;2023-02-24T21:11:11;63.00;;;36.33;;
41623;SDS011;27319;50.306;18.926;2023-02-24T21:14:14;69.47;;;36.22;;
41623;SDS011;27319;50.306;18.926;2023-02-24T21:18:15;55.67;;;30.73;;
41623;SDS011;27319;50.306;18.926;2023-02-24T21:21:38;60.28;;;33.50;;
41623;SDS011;27319;50.306;18.926;2023-02-24T21:25:39;60.17;;;31.25;;
41623;SDS011;27319;50.306;18.926;2023-02-24T21:28:40;61.22;;;32.17;;
41623;SDS011;27319;50.306;18.926;2023-02-24T21:31:41;56.60;;;32.78;;
41623;SDS011;27319;50.306;18.926;2023-02-24T21:34:42;61.00;;;33.78;;
41623;SDS011;27319;50.306;18.926;2023-02-24T21:37:43;61.63;;;31.73;;
41623;SDS011;27319;50.306;18.926;2023-02-24T21:41:44;54.10;;;28.73;;
41623;SDS011;27319;50.306;18.926;2023-02-24T21:44:45;49.40;;;28.02;;
41623;SDS011;27319;50.306;18.926;2023-02-24T21:47:46;47.67;;;26.58;;
41623;SDS011;27319;50.306;18.926;2023-02-24T21:50:55;44.15;;;25.50;;
41623;SDS011;27319;50.306;18.926;2023-02-24T21:54:03;44.53;;;25.63;;
41623;SDS011;27319;50.306;18.926;2023-02-24T21:58:04;47.50;;;25.80;;
41623;SDS011;27319;50.306;18.926;2023-02-24T22:01:24;63.05;;;34.80;;
41623;SDS011;27319;50.306;18.926;2023-02-24T22:04:27;67.32;;;36.55;;
41623;SDS011;27319;50.306;18.926;2023-02-24T22:07:28;76.03;;;42.70;;
41623;SDS011;27319;50.306;18.926;2023-02-24T22:10:29;71.15;;;39.25;;
41623;SDS011;27319;50.306;18.926;2023-02-24T22:13:30;61.15;;;34.95;;
41623;SDS011;27319;50.306;18.926;2023-02-24T22:16:31;58.33;;;33.90;;
41623;SDS011;27319;50.306;18.926;2023-02-24T22:19:32;63.40;;;36.17;;
41623;SDS011;27319;50.306;18.926;2023-02-24T22:22:40;67.95;;;35.95;;
41623;SDS011;27319;50.306;18.926;2023-02-24T22:25:50;69.88;;;37.88;;
41623;SDS011;27319;50.306;18.926;2023-02-24T22:28:52;64.68;;;37.80;;
41623;SDS011;27319;50.306;18.926;2023-02-24T22:31:53;63.08;;;35.40;;